createdAt,value
2023-04-20T00:01:23.356Z,100790.13
2023-04-20T00:03:53.428Z,100786.59
2023-04-20T00:06:25.640Z,100786.50
2023-04-20T00:08:55.398Z,100775.91
2023-04-20T00:11:25.080Z,100777.59
2023-04-20T00:13:57.422Z,100779.31
2023-04-20T00:16:27.209Z,100769.59
2023-04-20T00:18:56.980Z,100766.06
2023-04-20T00:21:27.395Z,100762.53
2023-04-20T00:23:57.164Z,100742.31
2023-04-20T00:26:26.892Z,100750.19
2023-04-20T00:29:00.112Z,100740.50
2023-04-20T00:31:29.885Z,100735.28
2023-04-20T00:33:59.687Z,100730.84
2023-04-20T00:36:30.168Z,100726.47
2023-04-20T00:39:02.493Z,100740.56
2023-04-20T00:41:32.224Z,100725.63
2023-04-20T00:44:06.460Z,100712.50
2023-04-20T00:46:37.030Z,100711.66
2023-04-20T00:49:08.523Z,100716.19
2023-04-20T00:51:38.547Z,100715.50
2023-04-20T00:54:08.815Z,100710.44
2023-04-20T00:56:38.552Z,100712.44
2023-04-20T00:59:13.174Z,100700.31
2023-04-20T01:01:43.013Z,100700.50
2023-04-20T01:04:13.045Z,100691.03
2023-04-20T01:06:42.770Z,100697.34
2023-04-20T01:09:12.729Z,100699.25
2023-04-20T01:11:42.498Z,100702.09
2023-04-20T01:14:14.987Z,100702.25
2023-04-20T01:16:45.041Z,100695.38
2023-04-20T01:19:15.846Z,100691.13
2023-04-20T01:21:45.668Z,100688.66
2023-04-20T01:24:17.929Z,100692.28
2023-04-20T01:26:47.618Z,100695.00
2023-04-20T01:29:17.511Z,100696.81
2023-04-20T01:31:47.492Z,100695.94
2023-04-20T01:34:17.821Z,100693.28
2023-04-20T01:36:48.382Z,100682.78
2023-04-20T01:39:20.906Z,100694.13
2023-04-20T01:41:50.821Z,100689.81
2023-04-20T01:44:20.912Z,100694.13
2023-04-20T01:46:50.657Z,100682.66
2023-04-20T01:49:20.451Z,100679.94
2023-04-20T01:51:50.154Z,100673.69
2023-04-20T01:54:22.419Z,100667.50
2023-04-20T01:56:52.327Z,100661.31
2023-04-20T01:59:22.021Z,100659.63
2023-04-20T02:01:52.008Z,100663.19
2023-04-20T02:04:21.732Z,100645.72
2023-04-20T02:06:51.459Z,100645.78
2023-04-20T02:09:23.749Z,100638.88
2023-04-20T02:11:53.447Z,100640.72
2023-04-20T02:14:23.133Z,100639.84
2023-04-20T02:16:53.558Z,100646.84
2023-04-20T02:19:23.389Z,100642.34
2023-04-20T02:21:53.133Z,100634.38
2023-04-20T02:24:25.772Z,100628.16
2023-04-20T02:26:58.794Z,100626.31
2023-04-20T02:29:28.566Z,100617.44
2023-04-20T02:31:58.354Z,100619.16
2023-04-20T02:34:28.182Z,100608.59
2023-04-20T02:36:59.914Z,100607.69
2023-04-20T02:39:32.263Z,100606.78
2023-04-20T02:42:01.925Z,100608.47
2023-04-20T02:44:32.044Z,100605.78
2023-04-20T02:47:02.081Z,100604.84
2023-04-20T02:49:32.562Z,100603.03
2023-04-20T02:52:02.668Z,100589.00
2023-04-20T02:54:35.276Z,100590.72
2023-04-20T02:57:05.486Z,100596.00
2023-04-20T02:59:37.693Z,100590.72
2023-04-20T03:02:27.917Z,100591.59
2023-04-20T03:04:58.616Z,100596.00
2023-04-20T03:07:30.248Z,100590.78
2023-04-20T03:10:02.667Z,100587.22
2023-04-20T03:12:47.695Z,100582.81
2023-04-20T03:15:33.599Z,100581.00
2023-04-20T03:18:15.058Z,100581.84
2023-04-20T03:20:44.772Z,100576.53
2023-04-20T03:23:14.702Z,100571.25
2023-04-20T03:25:47.227Z,100579.06
2023-04-20T03:28:24.766Z,100570.22
2023-04-20T03:30:54.856Z,100574.59
2023-04-20T03:33:24.704Z,100566.66
2023-04-20T03:35:54.499Z,100562.28
2023-04-20T03:38:24.255Z,100564.88
2023-04-20T03:40:57.568Z,100557.84
2023-04-20T03:43:27.325Z,100555.13
2023-04-20T03:45:58.409Z,100549.06
2023-04-20T03:48:28.136Z,100542.09
2023-04-20T03:50:59.060Z,100552.63
2023-04-20T03:53:29.282Z,100543.88
2023-04-20T03:56:01.842Z,100541.28
2023-04-20T03:58:31.691Z,100547.47
2023-04-20T04:01:15.940Z,100542.09
2023-04-20T04:03:50.965Z,100538.56
2023-04-20T04:06:20.821Z,100539.44
2023-04-20T04:08:50.671Z,100538.53
2023-04-20T04:11:22.954Z,100534.16
2023-04-20T04:13:52.652Z,100540.31
2023-04-20T04:16:22.608Z,100535.06
2023-04-20T04:18:53.344Z,100534.13
2023-04-20T04:21:23.535Z,100534.97
2023-04-20T04:23:59.174Z,100527.88
2023-04-20T04:26:40.325Z,100529.53
2023-04-20T04:29:10.675Z,100521.59
2023-04-20T04:31:40.613Z,100525.94
2023-04-20T04:34:18.525Z,100526.81
2023-04-20T04:36:52.761Z,100530.25
2023-04-20T04:39:30.372Z,100513.56
2023-04-20T04:42:11.622Z,100521.50
2023-04-20T04:44:45.159Z,100534.66
2023-04-20T04:47:20.089Z,100533.81
2023-04-20T04:49:49.764Z,100521.69
2023-04-20T04:52:19.430Z,100528.81
2023-04-20T04:54:49.554Z,100527.28
2023-04-20T04:57:21.829Z,100516.13
2023-04-20T04:59:51.556Z,100512.78
2023-04-20T05:02:21.916Z,100515.53
2023-04-20T05:04:54.703Z,100520.78
2023-04-20T05:07:24.948Z,100518.97
2023-04-20T05:09:54.743Z,100511.84
2023-04-20T05:12:27.408Z,100519.56
2023-04-20T05:14:57.143Z,100524.63
2023-04-20T05:17:26.933Z,100521.78
2023-04-20T05:19:56.689Z,100529.50
2023-04-20T05:22:26.393Z,100525.75
2023-04-20T05:24:56.132Z,100519.41
2023-04-20T05:27:28.509Z,100523.66
2023-04-20T05:30:06.410Z,100521.69
2023-04-20T05:32:48.511Z,100521.38
2023-04-20T05:35:20.689Z,100524.69
2023-04-20T05:37:50.398Z,100518.38
2023-04-20T05:40:20.541Z,100524.63
2023-04-20T05:42:52.853Z,100521.22
2023-04-20T05:45:22.556Z,100527.47
2023-04-20T05:47:55.856Z,100524.97
2023-04-20T05:50:26.087Z,100518.06
2023-04-20T05:52:56.319Z,100525.16
2023-04-20T05:55:27.097Z,100522.56
2023-04-20T05:57:59.381Z,100517.41
2023-04-20T06:00:29.374Z,100520.91
2023-04-20T06:02:59.272Z,100511.19
2023-04-20T06:05:29.258Z,100534.94
2023-04-20T06:07:59.035Z,100510.47
2023-04-20T06:10:32.445Z,100516.72
2023-04-20T06:13:04.929Z,100510.53
2023-04-20T06:15:34.824Z,100515.69
2023-04-20T06:18:04.591Z,100509.41
2023-04-20T06:20:34.370Z,100507.53
2023-04-20T06:23:04.139Z,100517.06
2023-04-20T06:25:33.856Z,100513.41
2023-04-20T06:28:06.422Z,100511.56
2023-04-20T06:30:36.528Z,100506.50
2023-04-20T06:33:06.688Z,100516.56
2023-04-20T06:35:36.386Z,100509.06
2023-04-20T06:38:06.112Z,100515.25
2023-04-20T06:40:35.951Z,100510.53
2023-04-20T06:43:08.243Z,100514.59
2023-04-20T06:45:37.943Z,100508.44
2023-04-20T06:48:17.149Z,100523.66
2023-04-20T06:50:57.474Z,100524.22
2023-04-20T06:53:27.157Z,100521.59
2023-04-20T06:55:57.232Z,100511.75
2023-04-20T06:58:29.545Z,100520.31
2023-04-20T07:00:59.220Z,100508.13
2023-04-20T07:03:29.019Z,100511.56
2023-04-20T07:05:58.844Z,100516.78
2023-04-20T07:08:28.505Z,100518.00
2023-04-20T07:10:58.166Z,100514.13
2023-04-20T07:13:33.416Z,100514.44
2023-04-20T07:16:03.694Z,100529.66
2023-04-20T07:18:35.279Z,100509.63
2023-04-20T07:21:05.384Z,100519.22
2023-04-20T07:23:35.076Z,100512.06
2023-04-20T07:26:04.768Z,100511.69
2023-04-20T07:28:37.258Z,100508.44
2023-04-20T07:31:06.989Z,100500.91
2023-04-20T07:33:36.751Z,100500.75
2023-04-20T07:36:07.275Z,100503.31
2023-04-20T07:38:36.904Z,100505.88
2023-04-20T07:41:06.756Z,100504.84
2023-04-20T07:43:39.084Z,100504.56
2023-04-20T07:46:09.050Z,100507.91
2023-04-20T07:48:38.948Z,100503.28
2023-04-20T07:51:08.830Z,100501.19
2023-04-20T07:53:39.167Z,100502.84
2023-04-20T07:56:09.670Z,100503.75
2023-04-20T07:58:41.910Z,100495.69
2023-04-20T08:01:11.583Z,100500.63
2023-04-20T08:03:41.808Z,100498.22
2023-04-20T08:06:12.690Z,100502.06
2023-04-20T08:08:42.438Z,100508.13
2023-04-20T08:11:13.050Z,100493.22
2023-04-20T08:13:45.288Z,100483.38
2023-04-20T08:16:15.107Z,100494.00
2023-04-20T08:18:44.922Z,100497.06
2023-04-20T08:21:14.697Z,100500.91
2023-04-20T08:23:44.425Z,100497.66
2023-04-20T08:26:17.997Z,100478.31
2023-04-20T08:28:50.373Z,100493.31
2023-04-20T08:31:20.241Z,100489.63
2023-04-20T08:33:49.976Z,100492.13
2023-04-20T08:36:19.889Z,100487.47
2023-04-20T08:38:53.442Z,100491.22
2023-04-20T08:41:23.115Z,100488.63
2023-04-20T08:43:55.494Z,100485.16
2023-04-20T08:46:26.209Z,100483.31
2023-04-20T08:48:56.370Z,100483.84
2023-04-20T08:51:26.884Z,100484.63
2023-04-20T08:53:58.368Z,100478.28
2023-04-20T08:56:36.890Z,100478.72
2023-04-20T08:59:10.640Z,100477.38
2023-04-20T09:01:41.804Z,100476.88
2023-04-20T09:04:19.774Z,100475.34
2023-04-20T09:06:50.813Z,100476.38
2023-04-20T09:09:20.995Z,100470.41
2023-04-20T09:12:02.989Z,100468.69
2023-04-20T09:14:45.415Z,100469.69
2023-04-20T09:17:17.991Z,100459.78
2023-04-20T09:19:49.136Z,100451.66
2023-04-20T09:22:18.839Z,100451.78
2023-04-20T09:24:48.527Z,100451.13
2023-04-20T09:27:18.863Z,100438.00
2023-04-20T09:30:00.310Z,100443.56
2023-04-20T09:32:32.500Z,100448.72
2023-04-20T09:35:02.241Z,100449.78
2023-04-20T09:37:31.897Z,100446.94
2023-04-20T09:40:03.049Z,100442.94
2023-04-20T09:42:34.067Z,100444.97
2023-04-20T09:45:06.825Z,100447.22
2023-04-20T09:47:41.957Z,100454.59
2023-04-20T09:50:26.780Z,100443.56
2023-04-20T09:52:59.905Z,100432.97
2023-04-20T09:55:30.315Z,100425.75
2023-04-20T09:58:00.143Z,100436.47
2023-04-20T10:00:32.568Z,100431.59
2023-04-20T10:03:02.457Z,100424.22
2023-04-20T10:05:39.969Z,100429.47
2023-04-20T10:08:10.468Z,100432.56
2023-04-20T10:10:47.750Z,100425.25
2023-04-20T10:13:19.606Z,100431.22
2023-04-20T10:15:52.092Z,100427.69
2023-04-20T10:18:23.952Z,100435.28
2023-04-20T10:20:54.588Z,100420.94
2023-04-20T10:23:24.240Z,100432.56
2023-04-20T10:26:01.174Z,100412.06
2023-04-20T10:28:41.841Z,100421.13
2023-04-20T10:31:17.158Z,100428.09
2023-04-20T10:33:57.127Z,100439.81
2023-04-20T10:36:28.077Z,100438.72
2023-04-20T10:38:57.806Z,100430.03
2023-04-20T10:41:27.553Z,100436.22
2023-04-20T10:43:57.417Z,100430.78
2023-04-20T10:46:29.717Z,100413.72
2023-04-20T10:49:01.636Z,100418.09
2023-04-20T10:51:31.676Z,100420.03
2023-04-20T10:54:05.396Z,100423.63
2023-04-20T10:56:43.470Z,100420.03
2023-04-20T10:59:14.352Z,100420.69
2023-04-20T11:01:48.094Z,100408.25
2023-04-20T11:04:19.076Z,100410.25
2023-04-20T11:06:51.876Z,100409.97
2023-04-20T11:09:23.695Z,100417.56
2023-04-20T11:12:04.234Z,100406.47
2023-04-20T11:14:34.892Z,100407.31
2023-04-20T11:17:07.600Z,100415.69
2023-04-20T11:19:38.723Z,100403.06
2023-04-20T11:22:08.990Z,100395.16
2023-04-20T11:24:41.378Z,100398.56
2023-04-20T11:27:11.173Z,100395.53
2023-04-20T11:29:42.076Z,100384.75
2023-04-20T11:32:14.587Z,100391.53
2023-04-20T11:34:46.170Z,100385.75
2023-04-20T11:37:17.888Z,100381.00
2023-04-20T11:39:47.785Z,100383.56
2023-04-20T11:42:17.751Z,100366.31
2023-04-20T11:44:47.408Z,100369.22
2023-04-20T11:47:19.705Z,100377.09
2023-04-20T11:49:49.383Z,100379.44
2023-04-20T11:52:19.062Z,100384.75
2023-04-20T11:54:48.726Z,100385.03
2023-04-20T11:57:18.933Z,100389.38
2023-04-20T11:59:49.337Z,100387.63
2023-04-20T12:02:21.650Z,100386.50
2023-04-20T12:04:52.005Z,100384.81
2023-04-20T12:07:21.802Z,100385.47
2023-04-20T12:09:51.549Z,100397.34
2023-04-20T12:12:22.204Z,100396.50
2023-04-20T12:14:51.855Z,100391.47
2023-04-20T12:17:24.121Z,100397.16
2023-04-20T12:19:54.174Z,100370.16
2023-04-20T12:22:23.984Z,100386.91
2023-04-20T12:24:53.669Z,100384.19
2023-04-20T12:27:23.308Z,100390.78
2023-04-20T12:29:52.948Z,100379.84
2023-04-20T12:32:25.214Z,100383.34
2023-04-20T12:34:54.925Z,100381.03
2023-04-20T12:37:24.687Z,100377.28
2023-04-20T12:39:54.415Z,100385.50
2023-04-20T12:42:24.243Z,100381.88
2023-04-20T12:44:56.433Z,100376.28
2023-04-20T12:47:28.758Z,100366.63
2023-04-20T12:49:58.591Z,100370.97
2023-04-20T12:52:29.263Z,100369.63
2023-04-20T12:54:58.991Z,100371.69
2023-04-20T12:57:28.668Z,100378.41
2023-04-20T12:59:59.840Z,100376.94
2023-04-20T13:02:32.442Z,100372.47
2023-04-20T13:05:02.254Z,100376.06
2023-04-20T13:07:31.951Z,100372.53
2023-04-20T13:10:02.610Z,100370.50
2023-04-20T13:12:32.331Z,100377.91
2023-04-20T13:15:02.072Z,100347.34
2023-04-20T13:17:34.431Z,100373.59
2023-04-20T13:20:04.878Z,100365.47
2023-04-20T13:22:38.904Z,100361.06
2023-04-20T13:25:13.520Z,100365.28
2023-04-20T13:27:43.228Z,100361.91
2023-04-20T13:30:14.178Z,100364.03
2023-04-20T13:32:46.427Z,100367.34
2023-04-20T13:35:16.587Z,100365.59
2023-04-20T13:37:47.389Z,100360.66
2023-04-20T13:40:17.413Z,100352.03
2023-04-20T13:42:47.093Z,100346.56
2023-04-20T13:45:16.917Z,100347.50
2023-04-20T13:47:49.258Z,100348.81
2023-04-20T13:50:18.964Z,100348.50
2023-04-20T13:52:48.634Z,100342.91
2023-04-20T13:55:20.605Z,100342.19
2023-04-20T13:57:50.402Z,100335.00
2023-04-20T14:00:21.886Z,100320.41
2023-04-20T14:02:54.249Z,100331.41
2023-04-20T14:05:24.045Z,100330.66
2023-04-20T14:07:53.847Z,100328.75
2023-04-20T14:10:23.633Z,100326.44
2023-04-20T14:12:53.368Z,100322.22
2023-04-20T14:15:23.048Z,100319.50
2023-04-20T14:17:55.353Z,100318.25
2023-04-20T14:20:25.422Z,100327.59
2023-04-20T14:22:55.382Z,100317.72
2023-04-20T14:25:25.086Z,100329.94
2023-04-20T14:27:54.817Z,100327.84
2023-04-20T14:30:24.914Z,100332.63
2023-04-20T14:33:04.078Z,100337.13
2023-04-20T14:35:33.929Z,100339.31
2023-04-20T14:38:03.605Z,100331.66
2023-04-20T14:40:34.789Z,100339.16
2023-04-20T14:43:04.489Z,100338.34
2023-04-20T14:45:34.172Z,100325.56
2023-04-20T14:48:06.853Z,100330.13
2023-04-20T14:50:36.848Z,100327.53
2023-04-20T14:53:06.512Z,100325.25
2023-04-20T14:55:36.243Z,100331.25
2023-04-20T14:58:05.949Z,100320.78
2023-04-20T15:00:35.835Z,100321.53
2023-04-20T15:03:08.258Z,100325.56
2023-04-20T15:05:38.442Z,100326.56
2023-04-20T15:08:08.528Z,100326.66
2023-04-20T15:10:38.333Z,100315.84
2023-04-20T15:13:08.786Z,100307.31
2023-04-20T15:15:48.118Z,100311.63
2023-04-20T15:18:21.963Z,100291.00
2023-04-20T15:20:53.602Z,100300.44
2023-04-20T15:23:23.456Z,100295.13
2023-04-20T15:25:53.192Z,100282.31
2023-04-20T15:28:22.936Z,100288.94
2023-04-20T15:30:52.645Z,100294.28
2023-04-20T15:33:24.911Z,100282.81
2023-04-20T15:35:54.575Z,100278.31
2023-04-20T15:38:24.242Z,100276.25
2023-04-20T15:40:54.153Z,100283.03
2023-04-20T15:43:23.826Z,100267.84
2023-04-20T15:45:53.554Z,100278.22
2023-04-20T15:48:25.854Z,100278.94
2023-04-20T15:50:55.654Z,100275.56
2023-04-20T15:53:25.384Z,100266.97
2023-04-20T15:55:55.109Z,100267.91
2023-04-20T15:58:24.918Z,100273.19
2023-04-20T16:00:54.630Z,100270.72
2023-04-20T16:03:27.029Z,100267.28
2023-04-20T16:05:56.813Z,100262.06
2023-04-20T16:08:26.552Z,100268.13
2023-04-20T16:10:56.229Z,100269.63
2023-04-20T16:13:26.312Z,100267.63
2023-04-20T16:15:56.109Z,100286.03
2023-04-20T16:18:29.869Z,100266.63
2023-04-20T16:20:59.525Z,100268.47
2023-04-20T16:23:29.349Z,100272.13
2023-04-20T16:25:59.036Z,100275.16
2023-04-20T16:28:29.627Z,100278.31
2023-04-20T16:30:59.327Z,100278.59
2023-04-20T16:33:32.564Z,100261.13
2023-04-20T16:36:02.347Z,100278.09
2023-04-20T16:38:32.043Z,100281.56
2023-04-20T16:41:01.736Z,100278.59
2023-04-20T16:43:31.656Z,100280.81
2023-04-20T16:46:01.526Z,100239.78
2023-04-20T16:48:34.161Z,100284.28
2023-04-20T16:51:03.949Z,100298.69
2023-04-20T16:53:33.734Z,100285.81
2023-04-20T16:56:03.482Z,100290.13
2023-04-20T16:58:33.133Z,100303.47
2023-04-20T17:01:03.080Z,100286.84
2023-04-20T17:03:35.824Z,100299.31
2023-04-20T17:06:08.183Z,100283.41
2023-04-20T17:08:38.176Z,100281.75
2023-04-20T17:11:08.233Z,100278.34
2023-04-20T17:13:37.986Z,100281.06
2023-04-20T17:16:07.923Z,100278.44
2023-04-20T17:18:41.939Z,100276.38
2023-04-20T17:21:11.922Z,100286.91
2023-04-20T17:23:41.662Z,100285.22
2023-04-20T17:26:11.893Z,100302.13
2023-04-20T17:28:41.578Z,100321.84
2023-04-20T17:31:11.406Z,100325.44
2023-04-20T17:33:45.102Z,100321.56
2023-04-20T17:36:14.851Z,100345.75
2023-04-20T17:38:44.519Z,100360.56
2023-04-20T17:41:14.304Z,100370.28
2023-04-20T17:43:43.982Z,100373.09
2023-04-20T17:46:13.752Z,100361.47
2023-04-20T17:48:46.091Z,100366.31
2023-04-20T17:51:16.196Z,100372.81
2023-04-20T17:53:45.955Z,100379.13
2023-04-20T17:56:15.665Z,100367.66
2023-04-20T17:58:45.339Z,100372.72
2023-04-20T18:01:15.112Z,100375.03
2023-04-20T18:03:48.476Z,100378.16
2023-04-20T18:06:18.496Z,100377.78
2023-04-20T18:08:48.523Z,100381.06
2023-04-20T18:11:18.209Z,100387.06
2023-04-20T18:13:47.909Z,100391.41
2023-04-20T18:16:17.727Z,100387.16
2023-04-20T18:18:50.534Z,100382.97
2023-04-20T18:21:20.754Z,100378.03
2023-04-20T18:23:51.480Z,100377.59
2023-04-20T18:26:21.154Z,100399.03
2023-04-20T18:28:50.949Z,100402.03
2023-04-20T18:31:20.680Z,100391.78
2023-04-20T18:33:53.010Z,100384.94
2023-04-20T18:36:22.696Z,100390.41
2023-04-20T18:38:54.191Z,100386.97
2023-04-20T18:41:25.855Z,100386.16
2023-04-20T18:43:55.877Z,100391.53
2023-04-20T18:46:25.759Z,100382.00
2023-04-20T18:48:58.126Z,100386.47
2023-04-20T18:51:27.801Z,100377.75
2023-04-20T18:53:57.488Z,100375.09
2023-04-20T18:56:27.145Z,100367.25
2023-04-20T18:58:58.085Z,100366.38
2023-04-20T19:01:27.873Z,100366.38
2023-04-20T19:04:00.707Z,100371.69
2023-04-20T19:06:31.290Z,100362.09
2023-04-20T19:09:01.331Z,100364.75
2023-04-20T19:11:33.615Z,100363.03
2023-04-20T19:14:03.301Z,100368.38
2023-04-20T19:16:33.843Z,100366.66
2023-04-20T19:19:06.551Z,100376.31
2023-04-20T19:21:36.443Z,100363.13
2023-04-20T19:24:06.511Z,100356.94
2023-04-20T19:26:36.906Z,100356.09
2023-04-20T19:29:06.593Z,100354.31
2023-04-20T19:31:38.006Z,100349.84
2023-04-20T19:34:13.541Z,100351.56
2023-04-20T19:36:43.575Z,100347.22
2023-04-20T19:39:13.304Z,100352.56
2023-04-20T19:41:43.020Z,100347.41
2023-04-20T19:44:14.483Z,100345.69
2023-04-20T19:46:46.228Z,100337.81
2023-04-20T19:49:18.982Z,100344.94
2023-04-20T19:51:48.865Z,100329.25
2023-04-20T19:54:19.065Z,100319.94
2023-04-20T19:56:49.053Z,100325.50
2023-04-20T19:59:19.080Z,100326.00
2023-04-20T20:01:50.680Z,100308.84
2023-04-20T20:04:23.404Z,100318.09
2023-04-20T20:06:53.305Z,100319.31
2023-04-20T20:09:24.125Z,100315.16
2023-04-20T20:11:54.125Z,100311.00
2023-04-20T20:14:23.854Z,100312.84
2023-04-20T20:16:53.540Z,100302.47
2023-04-20T20:19:25.898Z,100306.88
2023-04-20T20:21:55.952Z,100321.88
2023-04-20T20:24:26.146Z,100310.50
2023-04-20T20:26:55.828Z,100314.94
2023-04-20T20:29:25.853Z,100310.66
2023-04-20T20:31:55.639Z,100323.03
2023-04-20T20:34:28.067Z,100325.84
2023-04-20T20:36:58.755Z,100339.22
2023-04-20T20:39:28.440Z,100344.69
2023-04-20T20:41:58.106Z,100344.91
2023-04-20T20:44:29.026Z,100345.00
2023-04-20T20:46:58.818Z,100363.56
2023-04-20T20:49:31.239Z,100372.47
2023-04-20T20:52:02.286Z,100365.59
2023-04-20T20:54:32.103Z,100370.03
2023-04-20T20:57:01.864Z,100359.50
2023-04-20T20:59:31.539Z,100357.03
2023-04-20T21:02:01.413Z,100367.63
2023-04-20T21:04:33.764Z,100368.53
2023-04-20T21:07:03.539Z,100365.91
2023-04-20T21:09:33.286Z,100358.00
2023-04-20T21:12:03.095Z,100362.34
2023-04-20T21:14:32.767Z,100357.88
2023-04-20T21:17:02.600Z,100358.72
2023-04-20T21:19:35.034Z,100357.00
2023-04-20T21:22:04.850Z,100363.09
2023-04-20T21:24:34.552Z,100362.28
2023-04-20T21:27:04.281Z,100353.56
2023-04-20T21:29:33.963Z,100357.16
2023-04-20T21:32:03.675Z,100356.31
2023-04-20T21:34:36.114Z,100347.53
2023-04-20T21:37:06.350Z,100350.16
2023-04-20T21:39:36.069Z,100344.06
2023-04-20T21:42:05.978Z,100351.06
2023-04-20T21:44:35.833Z,100340.50
2023-04-20T21:47:05.501Z,100339.59
2023-04-20T21:49:37.792Z,100339.56
2023-04-20T21:52:07.524Z,100327.31
2023-04-20T21:54:38.074Z,100325.56
2023-04-20T21:57:07.752Z,100322.13
2023-04-20T21:59:37.472Z,100315.97
2023-04-20T22:02:07.321Z,100314.16
2023-04-20T22:04:40.021Z,100308.88
2023-04-20T22:07:09.922Z,100300.88
2023-04-20T22:09:39.689Z,100293.03
2023-04-20T22:12:09.871Z,100295.50
2023-04-20T22:14:39.536Z,100286.63
2023-04-20T22:17:09.725Z,100286.53
2023-04-20T22:19:42.353Z,100280.34
2023-04-20T22:22:12.085Z,100283.75
2023-04-20T22:24:42.118Z,100275.88
2023-04-20T22:27:11.851Z,100281.94
2023-04-20T22:29:41.566Z,100281.88
2023-04-20T22:32:11.259Z,100287.94
2023-04-20T22:34:43.512Z,100275.56
2023-04-20T22:37:13.238Z,100266.81
2023-04-20T22:39:42.976Z,100269.47
2023-04-20T22:42:12.615Z,100259.06
2023-04-20T22:44:42.305Z,100265.25
2023-04-20T22:47:12.045Z,100264.41
2023-04-20T22:49:45.037Z,100270.47
2023-04-20T22:52:14.870Z,100282.63
2023-04-20T22:54:48.246Z,100268.63
2023-04-20T22:57:18.708Z,100264.22
2023-04-20T22:59:48.915Z,100267.69
2023-04-20T23:02:18.872Z,100263.28
2023-04-20T23:04:51.673Z,100259.75
2023-04-20T23:07:21.597Z,100257.06
2023-04-20T23:09:51.271Z,100257.81
2023-04-20T23:12:20.980Z,100255.06
2023-04-20T23:14:50.964Z,100248.78
2023-04-20T23:17:20.785Z,100249.56
2023-04-20T23:19:53.084Z,100248.66
2023-04-20T23:22:22.740Z,100238.19
2023-04-20T23:24:52.433Z,100223.28
2023-04-20T23:27:22.105Z,100227.66
2023-04-20T23:29:52.160Z,100229.56
2023-04-20T23:32:21.870Z,100224.34
2023-04-20T23:34:54.265Z,100220.97
2023-04-20T23:37:23.930Z,100227.13
2023-04-20T23:39:53.610Z,100222.81
2023-04-20T23:42:23.280Z,100221.09
2023-04-20T23:44:52.958Z,100223.81
2023-04-20T23:47:22.721Z,100223.81
2023-04-20T23:49:55.063Z,100225.59
2023-04-20T23:52:24.792Z,100227.41
2023-04-20T23:54:54.516Z,100222.13
2023-04-20T23:57:24.183Z,100223.00
2023-04-20T23:59:53.869Z,100212.44
